sensor_id;sensor_type;location;lat;lon;timestamp;temperature;humidity
21495;DHT22;10909;53.590;10.054;2022-11-11T00:01:16;15.60;67.00
21495;DHT22;10909;53.590;10.054;2022-11-11T00:03:42;15.60;67.10
21495;DHT22;10909;53.590;10.054;2022-11-11T00:06:11;15.60;67.10
21495;DHT22;10909;53.590;10.054;2022-11-11T00:08:37;15.60;67.10
21495;DHT22;10909;53.590;10.054;2022-11-11T00:11:10;15.60;67.10
21495;DHT22;10909;53.590;10.054;2022-11-11T00:13:36;15.60;67.20
21495;DHT22;10909;53.590;10.054;2022-11-11T00:16:08;15.60;67.20
21495;DHT22;10909;53.590;10.054;2022-11-11T00:18:34;15.50;67.30
21495;DHT22;10909;53.590;10.054;2022-11-11T00:21:19;15.50;67.40
21495;DHT22;10909;53.590;10.054;2022-11-11T00:24:28;15.50;67.30
21495;DHT22;10909;53.590;10.054;2022-11-11T00:27:13;15.50;67.50
21495;DHT22;10909;53.590;10.054;2022-11-11T00:29:40;15.50;67.50
21495;DHT22;10909;53.590;10.054;2022-11-11T00:32:08;15.50;67.60
21495;DHT22;10909;53.590;10.054;2022-11-11T00:34:52;15.50;67.80
21495;DHT22;10909;53.590;10.054;2022-11-11T00:37:37;15.50;67.80
21495;DHT22;10909;53.590;10.054;2022-11-11T00:40:03;15.50;67.70
21495;DHT22;10909;53.590;10.054;2022-11-11T00:42:29;15.50;67.80
21495;DHT22;10909;53.590;10.054;2022-11-11T00:44:55;15.40;67.80
21495;DHT22;10909;53.590;10.054;2022-11-11T00:47:21;15.40;67.80
21495;DHT22;10909;53.590;10.054;2022-11-11T00:50:13;15.50;67.90
21495;DHT22;10909;53.590;10.054;2022-11-11T00:52:57;15.50;67.90
21495;DHT22;10909;53.590;10.054;2022-11-11T00:55:23;15.50;67.90
21495;DHT22;10909;53.590;10.054;2022-11-11T00:57:49;15.50;67.90
21495;DHT22;10909;53.590;10.054;2022-11-11T01:00:14;15.50;67.90
21495;DHT22;10909;53.590;10.054;2022-11-11T01:02:40;15.50;68.00
21495;DHT22;10909;53.590;10.054;2022-11-11T01:05:06;15.50;68.00
21495;DHT22;10909;53.590;10.054;2022-11-11T01:07:32;15.50;68.10
21495;DHT22;10909;53.590;10.054;2022-11-11T01:09:58;15.50;68.10
21495;DHT22;10909;53.590;10.054;2022-11-11T01:12:23;15.50;68.10
21495;DHT22;10909;53.590;10.054;2022-11-11T01:14:50;15.50;68.20
21495;DHT22;10909;53.590;10.054;2022-11-11T01:17:16;15.50;68.10
21495;DHT22;10909;53.590;10.054;2022-11-11T01:19:43;15.50;68.20
21495;DHT22;10909;53.590;10.054;2022-11-11T01:22:08;15.50;68.20
21495;DHT22;10909;53.590;10.054;2022-11-11T01:24:36;15.50;68.30
21495;DHT22;10909;53.590;10.054;2022-11-11T01:27:02;15.60;68.30
21495;DHT22;10909;53.590;10.054;2022-11-11T01:29:28;15.60;68.30
21495;DHT22;10909;53.590;10.054;2022-11-11T01:31:54;15.60;68.50
21495;DHT22;10909;53.590;10.054;2022-11-11T01:34:22;15.60;68.40
21495;DHT22;10909;53.590;10.054;2022-11-11T01:36:48;15.50;68.30
21495;DHT22;10909;53.590;10.054;2022-11-11T01:39:14;15.60;68.40
21495;DHT22;10909;53.590;10.054;2022-11-11T01:41:41;15.60;68.30
21495;DHT22;10909;53.590;10.054;2022-11-11T01:49:29;15.60;68.40
21495;DHT22;10909;53.590;10.054;2022-11-11T01:55:02;15.60;68.40
21495;DHT22;10909;53.590;10.054;2022-11-11T02:00:20;15.70;68.50
21495;DHT22;10909;53.590;10.054;2022-11-11T02:03:07;15.60;68.30
21495;DHT22;10909;53.590;10.054;2022-11-11T02:05:34;15.60;68.40
21495;DHT22;10909;53.590;10.054;2022-11-11T02:08:25;15.60;68.30
21495;DHT22;10909;53.590;10.054;2022-11-11T02:11:04;15.60;68.40
21495;DHT22;10909;53.590;10.054;2022-11-11T02:13:41;15.60;68.40
21495;DHT22;10909;53.590;10.054;2022-11-11T02:16:26;15.60;68.40
21495;DHT22;10909;53.590;10.054;2022-11-11T02:18:53;15.60;68.40
21495;DHT22;10909;53.590;10.054;2022-11-11T02:21:31;15.60;68.50
21495;DHT22;10909;53.590;10.054;2022-11-11T02:24:04;15.60;68.50
21495;DHT22;10909;53.590;10.054;2022-11-11T02:26:31;15.60;68.50
21495;DHT22;10909;53.590;10.054;2022-11-11T02:29:02;15.60;68.40
21495;DHT22;10909;53.590;10.054;2022-11-11T02:31:31;15.60;68.40
21495;DHT22;10909;53.590;10.054;2022-11-11T02:33:56;15.60;68.50
21495;DHT22;10909;53.590;10.054;2022-11-11T02:36:24;15.60;68.40
21495;DHT22;10909;53.590;10.054;2022-11-11T02:38:50;15.60;68.40
21495;DHT22;10909;53.590;10.054;2022-11-11T02:41:18;15.60;68.40
21495;DHT22;10909;53.590;10.054;2022-11-11T02:44:02;15.50;68.40
21495;DHT22;10909;53.590;10.054;2022-11-11T02:46:28;15.60;68.30
21495;DHT22;10909;53.590;10.054;2022-11-11T02:48:55;15.50;68.30
21495;DHT22;10909;53.590;10.054;2022-11-11T02:51:21;15.50;68.40
21495;DHT22;10909;53.590;10.054;2022-11-11T02:53:47;15.40;68.30
21495;DHT22;10909;53.590;10.054;2022-11-11T02:56:14;15.50;68.40
21495;DHT22;10909;53.590;10.054;2022-11-11T02:58:59;15.40;68.30
21495;DHT22;10909;53.590;10.054;2022-11-11T03:01:25;15.40;68.30
21495;DHT22;10909;53.590;10.054;2022-11-11T03:03:51;15.40;68.30
21495;DHT22;10909;53.590;10.054;2022-11-11T03:06:17;15.30;68.30
21495;DHT22;10909;53.590;10.054;2022-11-11T03:08:43;15.30;68.50
21495;DHT22;10909;53.590;10.054;2022-11-11T03:11:08;15.30;68.50
21495;DHT22;10909;53.590;10.054;2022-11-11T03:13:34;15.30;68.50
21495;DHT22;10909;53.590;10.054;2022-11-11T03:15:59;15.30;68.50
21495;DHT22;10909;53.590;10.054;2022-11-11T03:18:25;15.30;68.60
21495;DHT22;10909;53.590;10.054;2022-11-11T03:20:51;15.30;68.70
21495;DHT22;10909;53.590;10.054;2022-11-11T03:23:31;15.30;68.70
21495;DHT22;10909;53.590;10.054;2022-11-11T03:25:57;15.30;68.60
21495;DHT22;10909;53.590;10.054;2022-11-11T03:28:24;15.30;68.60
21495;DHT22;10909;53.590;10.054;2022-11-11T03:30:52;15.30;68.60
21495;DHT22;10909;53.590;10.054;2022-11-11T03:33:20;15.30;68.60
21495;DHT22;10909;53.590;10.054;2022-11-11T03:35:46;15.30;68.60
21495;DHT22;10909;53.590;10.054;2022-11-11T03:38:13;15.20;69.40
21495;DHT22;10909;53.590;10.054;2022-11-11T03:40:53;15.20;68.60
21495;DHT22;10909;53.590;10.054;2022-11-11T03:43:21;15.20;68.60
21495;DHT22;10909;53.590;10.054;2022-11-11T03:45:47;15.10;68.50
21495;DHT22;10909;53.590;10.054;2022-11-11T03:48:13;15.10;68.60
21495;DHT22;10909;53.590;10.054;2022-11-11T03:50:40;15.10;68.60
21495;DHT22;10909;53.590;10.054;2022-11-11T03:53:06;15.10;68.70
21495;DHT22;10909;53.590;10.054;2022-11-11T03:55:32;15.10;68.80
21495;DHT22;10909;53.590;10.054;2022-11-11T03:57:57;15.10;68.80
21495;DHT22;10909;53.590;10.054;2022-11-11T04:00:26;15.00;68.80
21495;DHT22;10909;53.590;10.054;2022-11-11T04:03:02;15.00;68.80
21495;DHT22;10909;53.590;10.054;2022-11-11T04:05:46;15.00;69.00
21495;DHT22;10909;53.590;10.054;2022-11-11T04:08:30;15.00;68.90
21495;DHT22;10909;53.590;10.054;2022-11-11T04:11:21;15.00;68.90
21495;DHT22;10909;53.590;10.054;2022-11-11T04:13:48;15.00;68.90
21495;DHT22;10909;53.590;10.054;2022-11-11T04:16:32;15.00;68.80
21495;DHT22;10909;53.590;10.054;2022-11-11T04:18:58;15.00;68.80
21495;DHT22;10909;53.590;10.054;2022-11-11T04:21:42;14.90;68.80
21495;DHT22;10909;53.590;10.054;2022-11-11T04:26:54;14.90;68.90
21495;DHT22;10909;53.590;10.054;2022-11-11T04:29:21;14.80;68.80
21495;DHT22;10909;53.590;10.054;2022-11-11T04:32:03;14.80;68.90
21495;DHT22;10909;53.590;10.054;2022-11-11T04:34:49;14.80;68.90
21495;DHT22;10909;53.590;10.054;2022-11-11T04:37:16;14.80;68.90
21495;DHT22;10909;53.590;10.054;2022-11-11T04:39:42;14.80;69.00
21495;DHT22;10909;53.590;10.054;2022-11-11T04:42:28;14.80;69.10
21495;DHT22;10909;53.590;10.054;2022-11-11T04:44:54;14.70;69.00
21495;DHT22;10909;53.590;10.054;2022-11-11T04:47:55;14.70;69.20
21495;DHT22;10909;53.590;10.054;2022-11-11T04:50:23;14.70;69.30
21495;DHT22;10909;53.590;10.054;2022-11-11T04:52:50;14.70;69.10
21495;DHT22;10909;53.590;10.054;2022-11-11T04:55:16;14.70;69.20
21495;DHT22;10909;53.590;10.054;2022-11-11T04:58:01;14.70;69.30
21495;DHT22;10909;53.590;10.054;2022-11-11T05:00:29;14.70;69.30
21495;DHT22;10909;53.590;10.054;2022-11-11T05:02:56;14.70;69.40
21495;DHT22;10909;53.590;10.054;2022-11-11T05:05:59;14.70;69.30
21495;DHT22;10909;53.590;10.054;2022-11-11T05:08:45;14.70;69.40
21495;DHT22;10909;53.590;10.054;2022-11-11T05:11:28;14.70;69.30
21495;DHT22;10909;53.590;10.054;2022-11-11T05:13:56;14.70;69.30
21495;DHT22;10909;53.590;10.054;2022-11-11T05:19:29;14.70;69.30
21495;DHT22;10909;53.590;10.054;2022-11-11T05:22:29;14.60;69.20
21495;DHT22;10909;53.590;10.054;2022-11-11T05:24:55;14.60;69.20
21495;DHT22;10909;53.590;10.054;2022-11-11T05:27:40;14.60;69.20
21495;DHT22;10909;53.590;10.054;2022-11-11T05:30:08;14.60;69.20
21495;DHT22;10909;53.590;10.054;2022-11-11T05:32:38;14.60;69.30
21495;DHT22;10909;53.590;10.054;2022-11-11T05:35:06;14.60;69.40
21495;DHT22;10909;53.590;10.054;2022-11-11T05:37:33;14.50;69.30
21495;DHT22;10909;53.590;10.054;2022-11-11T05:40:06;14.60;69.40
21495;DHT22;10909;53.590;10.054;2022-11-11T05:42:33;14.50;69.40
21495;DHT22;10909;53.590;10.054;2022-11-11T05:44:59;14.50;69.30
21495;DHT22;10909;53.590;10.054;2022-11-11T05:47:26;14.50;69.20
21495;DHT22;10909;53.590;10.054;2022-11-11T05:49:52;14.50;69.30
21495;DHT22;10909;53.590;10.054;2022-11-11T05:52:18;14.50;69.40
21495;DHT22;10909;53.590;10.054;2022-11-11T05:54:44;14.40;69.30
21495;DHT22;10909;53.590;10.054;2022-11-11T05:57:11;14.40;69.40
21495;DHT22;10909;53.590;10.054;2022-11-11T05:59:36;14.40;69.50
21495;DHT22;10909;53.590;10.054;2022-11-11T06:02:06;14.40;69.60
21495;DHT22;10909;53.590;10.054;2022-11-11T06:04:31;14.40;69.60
21495;DHT22;10909;53.590;10.054;2022-11-11T06:06:59;14.40;69.60
21495;DHT22;10909;53.590;10.054;2022-11-11T06:09:28;14.40;69.60
21495;DHT22;10909;53.590;10.054;2022-11-11T06:11:55;14.40;69.60
21495;DHT22;10909;53.590;10.054;2022-11-11T06:14:21;14.40;69.70
21495;DHT22;10909;53.590;10.054;2022-11-11T06:16:46;14.40;69.70
21495;DHT22;10909;53.590;10.054;2022-11-11T06:19:12;14.40;69.80
21495;DHT22;10909;53.590;10.054;2022-11-11T06:21:38;14.40;69.80
21495;DHT22;10909;53.590;10.054;2022-11-11T06:24:23;14.40;69.80
21495;DHT22;10909;53.590;10.054;2022-11-11T06:26:49;14.40;69.80
21495;DHT22;10909;53.590;10.054;2022-11-11T06:29:16;14.40;69.90
21495;DHT22;10909;53.590;10.054;2022-11-11T06:31:45;14.40;69.90
21495;DHT22;10909;53.590;10.054;2022-11-11T06:34:18;14.40;70.00
21495;DHT22;10909;53.590;10.054;2022-11-11T06:36:48;14.40;70.00
21495;DHT22;10909;53.590;10.054;2022-11-11T06:39:13;14.40;70.00
21495;DHT22;10909;53.590;10.054;2022-11-11T06:41:39;14.40;70.00
21495;DHT22;10909;53.590;10.054;2022-11-11T06:44:05;14.40;70.10
21495;DHT22;10909;53.590;10.054;2022-11-11T06:46:31;14.40;70.10
21495;DHT22;10909;53.590;10.054;2022-11-11T06:48:57;14.40;70.10
21495;DHT22;10909;53.590;10.054;2022-11-11T06:51:23;14.40;70.20
21495;DHT22;10909;53.590;10.054;2022-11-11T06:53:50;14.40;70.20
21495;DHT22;10909;53.590;10.054;2022-11-11T06:56:18;14.40;70.30
21495;DHT22;10909;53.590;10.054;2022-11-11T06:58:44;14.40;70.20
21495;DHT22;10909;53.590;10.054;2022-11-11T07:01:10;14.40;70.20
21495;DHT22;10909;53.590;10.054;2022-11-11T07:03:38;14.40;70.20
21495;DHT22;10909;53.590;10.054;2022-11-11T07:06:04;14.30;70.20
21495;DHT22;10909;53.590;10.054;2022-11-11T07:08:32;14.30;70.40
21495;DHT22;10909;53.590;10.054;2022-11-11T07:10:59;14.30;70.40
21495;DHT22;10909;53.590;10.054;2022-11-11T07:13:26;14.30;70.50
21495;DHT22;10909;53.590;10.054;2022-11-11T07:15:52;14.20;70.60
21495;DHT22;10909;53.590;10.054;2022-11-11T07:18:18;14.20;70.50
21495;DHT22;10909;53.590;10.054;2022-11-11T07:20:44;14.20;70.50
21495;DHT22;10909;53.590;10.054;2022-11-11T07:23:09;14.20;70.60
21495;DHT22;10909;53.590;10.054;2022-11-11T07:25:35;14.20;70.70
21495;DHT22;10909;53.590;10.054;2022-11-11T07:28:02;14.20;70.80
21495;DHT22;10909;53.590;10.054;2022-11-11T07:30:28;14.20;70.80
21495;DHT22;10909;53.590;10.054;2022-11-11T07:32:53;14.10;70.80
21495;DHT22;10909;53.590;10.054;2022-11-11T07:35:20;14.10;71.00
21495;DHT22;10909;53.590;10.054;2022-11-11T07:37:46;14.10;71.10
21495;DHT22;10909;53.590;10.054;2022-11-11T07:40:14;14.10;71.10
21495;DHT22;10909;53.590;10.054;2022-11-11T07:42:41;14.10;71.10
21495;DHT22;10909;53.590;10.054;2022-11-11T07:45:08;14.10;71.20
21495;DHT22;10909;53.590;10.054;2022-11-11T07:47:34;14.10;71.30
21495;DHT22;10909;53.590;10.054;2022-11-11T07:50:03;14.10;71.40
21495;DHT22;10909;53.590;10.054;2022-11-11T07:52:48;14.10;71.40
21495;DHT22;10909;53.590;10.054;2022-11-11T07:55:20;14.10;71.50
21495;DHT22;10909;53.590;10.054;2022-11-11T07:57:51;14.10;71.40
21495;DHT22;10909;53.590;10.054;2022-11-11T08:00:19;14.10;71.40
21495;DHT22;10909;53.590;10.054;2022-11-11T08:02:51;14.10;71.40
21495;DHT22;10909;53.590;10.054;2022-11-11T08:05:22;14.10;71.60
21495;DHT22;10909;53.590;10.054;2022-11-11T08:07:53;14.10;71.60
21495;DHT22;10909;53.590;10.054;2022-11-11T08:10:19;14.10;71.60
21495;DHT22;10909;53.590;10.054;2022-11-11T08:13:20;14.10;71.60
21495;DHT22;10909;53.590;10.054;2022-11-11T08:19:45;14.10;71.70
21495;DHT22;10909;53.590;10.054;2022-11-11T08:22:57;14.10;71.80
21495;DHT22;10909;53.590;10.054;2022-11-11T08:25:59;14.10;71.90
21495;DHT22;10909;53.590;10.054;2022-11-11T08:28:45;14.10;72.00
21495;DHT22;10909;53.590;10.054;2022-11-11T08:32:03;14.20;72.20
21495;DHT22;10909;53.590;10.054;2022-11-11T08:34:45;14.10;72.10
21495;DHT22;10909;53.590;10.054;2022-11-11T08:43:49;14.20;72.40
21495;DHT22;10909;53.590;10.054;2022-11-11T08:46:40;14.20;72.00
21495;DHT22;10909;53.590;10.054;2022-11-11T08:49:10;14.20;72.10
21495;DHT22;10909;53.590;10.054;2022-11-11T08:51:46;14.20;72.30
21495;DHT22;10909;53.590;10.054;2022-11-11T08:54:22;14.20;72.30
21495;DHT22;10909;53.590;10.054;2022-11-11T08:56:50;14.20;72.40
21495;DHT22;10909;53.590;10.054;2022-11-11T08:59:23;14.20;72.40
21495;DHT22;10909;53.590;10.054;2022-11-11T09:01:54;14.20;72.50
21495;DHT22;10909;53.590;10.054;2022-11-11T09:04:25;14.20;72.60
21495;DHT22;10909;53.590;10.054;2022-11-11T09:07:04;14.20;72.60
21495;DHT22;10909;53.590;10.054;2022-11-11T09:09:31;14.30;72.60
21495;DHT22;10909;53.590;10.054;2022-11-11T09:12:31;14.30;72.60
21495;DHT22;10909;53.590;10.054;2022-11-11T09:15:18;14.30;72.70
21495;DHT22;10909;53.590;10.054;2022-11-11T09:17:57;14.30;72.60
21495;DHT22;10909;53.590;10.054;2022-11-11T09:20:24;14.30;72.40
21495;DHT22;10909;53.590;10.054;2022-11-11T09:23:05;14.30;72.40
21495;DHT22;10909;53.590;10.054;2022-11-11T09:26:06;14.30;72.50
21495;DHT22;10909;53.590;10.054;2022-11-11T09:28:41;14.30;72.50
21495;DHT22;10909;53.590;10.054;2022-11-11T09:31:10;14.40;72.80
21495;DHT22;10909;53.590;10.054;2022-11-11T09:33:41;14.30;72.70
21495;DHT22;10909;53.590;10.054;2022-11-11T09:36:09;14.40;72.70
21495;DHT22;10909;53.590;10.054;2022-11-11T09:38:51;14.40;72.80
21495;DHT22;10909;53.590;10.054;2022-11-11T09:47:16;14.50;72.90
21495;DHT22;10909;53.590;10.054;2022-11-11T09:50:15;14.50;72.60
21495;DHT22;10909;53.590;10.054;2022-11-11T09:53:33;14.50;72.80
21495;DHT22;10909;53.590;10.054;2022-11-11T09:57:00;14.50;72.80
21495;DHT22;10909;53.590;10.054;2022-11-11T10:03:28;14.50;72.60
21495;DHT22;10909;53.590;10.054;2022-11-11T10:09:04;14.50;72.70
21495;DHT22;10909;53.590;10.054;2022-11-11T10:15:25;14.50;72.70
21495;DHT22;10909;53.590;10.054;2022-11-11T10:18:37;14.60;72.60
21495;DHT22;10909;53.590;10.054;2022-11-11T10:21:18;14.50;72.70
21495;DHT22;10909;53.590;10.054;2022-11-11T10:23:59;14.60;72.60
21495;DHT22;10909;53.590;10.054;2022-11-11T10:29:52;14.70;72.60
21495;DHT22;10909;53.590;10.054;2022-11-11T10:32:38;14.60;72.40
21495;DHT22;10909;53.590;10.054;2022-11-11T10:35:23;14.70;72.40
21495;DHT22;10909;53.590;10.054;2022-11-11T10:41:45;14.80;72.50
21495;DHT22;10909;53.590;10.054;2022-11-11T10:44:30;14.80;72.30
21495;DHT22;10909;53.590;10.054;2022-11-11T10:47:17;14.90;72.30
21495;DHT22;10909;53.590;10.054;2022-11-11T10:53:07;15.00;71.90
21495;DHT22;10909;53.590;10.054;2022-11-11T10:55:37;15.00;71.70
21495;DHT22;10909;53.590;10.054;2022-11-11T11:07:13;14.90;71.50
21495;DHT22;10909;53.590;10.054;2022-11-11T11:10:18;15.00;71.50
21495;DHT22;10909;53.590;10.054;2022-11-11T11:13:08;15.00;71.40
21495;DHT22;10909;53.590;10.054;2022-11-11T11:15:46;15.00;71.40
21495;DHT22;10909;53.590;10.054;2022-11-11T11:18:15;15.00;71.40
21495;DHT22;10909;53.590;10.054;2022-11-11T11:20:59;14.80;72.00
21495;DHT22;10909;53.590;10.054;2022-11-11T11:24:17;14.90;71.80
21495;DHT22;10909;53.590;10.054;2022-11-11T11:31:12;15.10;71.20
21495;DHT22;10909;53.590;10.054;2022-11-11T11:33:58;15.10;71.00
21495;DHT22;10909;53.590;10.054;2022-11-11T11:36:30;15.00;70.80
21495;DHT22;10909;53.590;10.054;2022-11-11T11:39:05;15.00;70.90
21495;DHT22;10909;53.590;10.054;2022-11-11T11:41:45;15.00;71.00
21495;DHT22;10909;53.590;10.054;2022-11-11T11:44:38;15.10;71.10
21495;DHT22;10909;53.590;10.054;2022-11-11T11:50:03;15.10;71.00
21495;DHT22;10909;53.590;10.054;2022-11-11T11:55:34;15.10;70.80
21495;DHT22;10909;53.590;10.054;2022-11-11T12:07:09;15.20;70.60
21495;DHT22;10909;53.590;10.054;2022-11-11T12:12:45;15.20;70.60
21495;DHT22;10909;53.590;10.054;2022-11-11T12:15:37;15.10;70.50
21495;DHT22;10909;53.590;10.054;2022-11-11T12:45:37;15.00;70.50
21495;DHT22;10909;53.590;10.054;2022-11-11T12:48:34;15.00;70.60
21495;DHT22;10909;53.590;10.054;2022-11-11T13:00:23;15.00;70.50
21495;DHT22;10909;53.590;10.054;2022-11-11T13:05:57;15.00;70.40
21495;DHT22;10909;53.590;10.054;2022-11-11T13:11:49;14.90;70.50
21495;DHT22;10909;53.590;10.054;2022-11-11T13:14:39;14.90;70.50
21495;DHT22;10909;53.590;10.054;2022-11-11T13:17:12;14.90;70.60
21495;DHT22;10909;53.590;10.054;2022-11-11T13:19:53;14.90;70.60
21495;DHT22;10909;53.590;10.054;2022-11-11T13:22:22;15.00;70.70
21495;DHT22;10909;53.590;10.054;2022-11-11T13:24:53;15.00;70.60
21495;DHT22;10909;53.590;10.054;2022-11-11T13:27:33;15.00;70.60
21495;DHT22;10909;53.590;10.054;2022-11-11T13:32:58;15.00;70.50
21495;DHT22;10909;53.590;10.054;2022-11-11T13:35:30;15.00;70.50
21495;DHT22;10909;53.590;10.054;2022-11-11T13:37:56;15.00;70.50
21495;DHT22;10909;53.590;10.054;2022-11-11T13:40:43;15.00;70.50
21495;DHT22;10909;53.590;10.054;2022-11-11T13:43:23;15.10;70.70
21495;DHT22;10909;53.590;10.054;2022-11-11T13:45:57;15.10;70.50
21495;DHT22;10909;53.590;10.054;2022-11-11T13:48:35;15.10;70.50
21495;DHT22;10909;53.590;10.054;2022-11-11T13:53:59;15.10;70.50
21495;DHT22;10909;53.590;10.054;2022-11-11T13:58:59;15.00;70.40
21495;DHT22;10909;53.590;10.054;2022-11-11T14:01:33;15.00;70.50
21495;DHT22;10909;53.590;10.054;2022-11-11T14:04:02;15.00;70.60
21495;DHT22;10909;53.590;10.054;2022-11-11T14:09:00;15.10;70.70
21495;DHT22;10909;53.590;10.054;2022-11-11T14:11:31;15.10;70.70
21495;DHT22;10909;53.590;10.054;2022-11-11T14:27:36;15.00;70.50
21495;DHT22;10909;53.590;10.054;2022-11-11T14:30:39;15.10;70.40
21495;DHT22;10909;53.590;10.054;2022-11-11T14:36:56;15.00;70.70
21495;DHT22;10909;53.590;10.054;2022-11-11T14:39:51;15.00;70.70
21495;DHT22;10909;53.590;10.054;2022-11-11T14:42:45;15.00;70.90
21495;DHT22;10909;53.590;10.054;2022-11-11T14:59:05;15.00;71.10
21495;DHT22;10909;53.590;10.054;2022-11-11T15:09:32;15.10;71.00
21495;DHT22;10909;53.590;10.054;2022-11-11T15:43:44;15.20;71.30
21495;DHT22;10909;53.590;10.054;2022-11-11T15:46:29;15.20;71.20
21495;DHT22;10909;53.590;10.054;2022-11-11T15:49:00;15.20;71.30
21495;DHT22;10909;53.590;10.054;2022-11-11T15:51:59;15.20;71.30
21495;DHT22;10909;53.590;10.054;2022-11-11T15:58:17;15.20;71.50
21495;DHT22;10909;53.590;10.054;2022-11-11T16:00:58;15.30;71.30
21495;DHT22;10909;53.590;10.054;2022-11-11T16:07:49;15.30;71.40
21495;DHT22;10909;53.590;10.054;2022-11-11T16:14:41;15.30;71.30
21495;DHT22;10909;53.590;10.054;2022-11-11T16:24:53;15.40;71.40
21495;DHT22;10909;53.590;10.054;2022-11-11T16:37:23;15.50;71.60
21495;DHT22;10909;53.590;10.054;2022-11-11T16:47:08;15.40;71.40
21495;DHT22;10909;53.590;10.054;2022-11-11T17:01:18;15.40;71.30
21495;DHT22;10909;53.590;10.054;2022-11-11T17:04:13;15.40;71.30
21495;DHT22;10909;53.590;10.054;2022-11-11T17:07:30;15.40;71.50
21495;DHT22;10909;53.590;10.054;2022-11-11T17:10:17;15.50;71.60
21495;DHT22;10909;53.590;10.054;2022-11-11T17:13:13;15.40;71.40
21495;DHT22;10909;53.590;10.054;2022-11-11T17:15:56;15.40;71.50
21495;DHT22;10909;53.590;10.054;2022-11-11T17:18:48;15.40;71.40
21495;DHT22;10909;53.590;10.054;2022-11-11T17:22:20;15.40;71.40
21495;DHT22;10909;53.590;10.054;2022-11-11T17:28:40;15.50;71.40
21495;DHT22;10909;53.590;10.054;2022-11-11T17:31:26;15.50;71.50
21495;DHT22;10909;53.590;10.054;2022-11-11T17:34:23;15.50;71.30
21495;DHT22;10909;53.590;10.054;2022-11-11T17:36:57;15.50;71.40
21495;DHT22;10909;53.590;10.054;2022-11-11T17:39:37;15.40;71.20
21495;DHT22;10909;53.590;10.054;2022-11-11T17:42:38;15.50;71.30
21495;DHT22;10909;53.590;10.054;2022-11-11T17:45:11;15.40;71.20
21495;DHT22;10909;53.590;10.054;2022-11-11T17:47:40;15.40;72.00
21495;DHT22;10909;53.590;10.054;2022-11-11T17:50:11;15.40;71.30
21495;DHT22;10909;53.590;10.054;2022-11-11T17:52:51;15.40;71.30
21495;DHT22;10909;53.590;10.054;2022-11-11T17:55:19;15.40;71.30
21495;DHT22;10909;53.590;10.054;2022-11-11T17:57:51;15.40;71.30
21495;DHT22;10909;53.590;10.054;2022-11-11T18:00:31;15.40;71.40
21495;DHT22;10909;53.590;10.054;2022-11-11T18:02:57;15.40;71.50
21495;DHT22;10909;53.590;10.054;2022-11-11T18:05:22;15.40;71.40
21495;DHT22;10909;53.590;10.054;2022-11-11T18:07:48;15.40;71.50
21495;DHT22;10909;53.590;10.054;2022-11-11T18:10:14;15.40;71.60
21495;DHT22;10909;53.590;10.054;2022-11-11T18:12:42;15.40;71.70
21495;DHT22;10909;53.590;10.054;2022-11-11T18:15:10;15.40;71.70
21495;DHT22;10909;53.590;10.054;2022-11-11T18:17:37;15.40;71.70
21495;DHT22;10909;53.590;10.054;2022-11-11T18:20:04;15.40;71.60
21495;DHT22;10909;53.590;10.054;2022-11-11T18:22:32;15.40;71.60
21495;DHT22;10909;53.590;10.054;2022-11-11T18:25:00;15.40;71.60
21495;DHT22;10909;53.590;10.054;2022-11-11T18:27:26;15.40;71.60
21495;DHT22;10909;53.590;10.054;2022-11-11T18:29:52;15.40;71.70
21495;DHT22;10909;53.590;10.054;2022-11-11T18:32:19;15.40;71.70
21495;DHT22;10909;53.590;10.054;2022-11-11T18:34:55;15.40;71.60
21495;DHT22;10909;53.590;10.054;2022-11-11T18:37:21;15.40;72.40
21495;DHT22;10909;53.590;10.054;2022-11-11T18:39:46;15.40;71.70
21495;DHT22;10909;53.590;10.054;2022-11-11T18:42:12;15.40;71.70
21495;DHT22;10909;53.590;10.054;2022-11-11T18:44:48;15.40;71.80
21495;DHT22;10909;53.590;10.054;2022-11-11T18:47:25;15.40;71.80
21495;DHT22;10909;53.590;10.054;2022-11-11T18:50:02;15.40;71.70
21495;DHT22;10909;53.590;10.054;2022-11-11T18:52:33;15.40;71.60
21495;DHT22;10909;53.590;10.054;2022-11-11T18:55:04;15.30;71.60
21495;DHT22;10909;53.590;10.054;2022-11-11T18:57:31;15.30;71.60
21495;DHT22;10909;53.590;10.054;2022-11-11T18:59:58;15.30;71.70
21495;DHT22;10909;53.590;10.054;2022-11-11T19:02:24;15.30;71.70
21495;DHT22;10909;53.590;10.054;2022-11-11T19:04:50;15.30;71.70
21495;DHT22;10909;53.590;10.054;2022-11-11T19:07:19;15.30;71.80
21495;DHT22;10909;53.590;10.054;2022-11-11T19:09:46;15.20;71.70
21495;DHT22;10909;53.590;10.054;2022-11-11T19:12:11;15.20;71.80
21495;DHT22;10909;53.590;10.054;2022-11-11T19:14:37;15.20;71.80
21495;DHT22;10909;53.590;10.054;2022-11-11T19:17:03;15.20;71.80
21495;DHT22;10909;53.590;10.054;2022-11-11T19:19:28;15.20;71.90
21495;DHT22;10909;53.590;10.054;2022-11-11T19:21:54;15.20;72.00
21495;DHT22;10909;53.590;10.054;2022-11-11T19:24:20;15.20;72.00
21495;DHT22;10909;53.590;10.054;2022-11-11T19:26:48;15.20;72.10
21495;DHT22;10909;53.590;10.054;2022-11-11T19:29:14;15.20;72.20
21495;DHT22;10909;53.590;10.054;2022-11-11T19:31:39;15.20;72.20
21495;DHT22;10909;53.590;10.054;2022-11-11T19:34:05;15.10;72.00
21495;DHT22;10909;53.590;10.054;2022-11-11T19:36:31;15.20;72.20
21495;DHT22;10909;53.590;10.054;2022-11-11T19:38:58;15.20;72.20
21495;DHT22;10909;53.590;10.054;2022-11-11T19:41:26;15.10;72.10
21495;DHT22;10909;53.590;10.054;2022-11-11T19:43:53;15.10;72.10
21495;DHT22;10909;53.590;10.054;2022-11-11T19:46:20;15.10;72.00
21495;DHT22;10909;53.590;10.054;2022-11-11T19:48:48;15.10;72.00
21495;DHT22;10909;53.590;10.054;2022-11-11T19:51:19;15.10;72.00
21495;DHT22;10909;53.590;10.054;2022-11-11T19:53:46;15.00;72.00
21495;DHT22;10909;53.590;10.054;2022-11-11T19:56:17;15.00;71.90
21495;DHT22;10909;53.590;10.054;2022-11-11T19:58:44;15.00;72.00
21495;DHT22;10909;53.590;10.054;2022-11-11T20:01:13;14.90;72.00
21495;DHT22;10909;53.590;10.054;2022-11-11T20:03:39;14.90;72.00
21495;DHT22;10909;53.590;10.054;2022-11-11T20:06:06;14.90;72.10
21495;DHT22;10909;53.590;10.054;2022-11-11T20:08:42;14.90;72.20
21495;DHT22;10909;53.590;10.054;2022-11-11T20:11:08;14.80;72.20
21495;DHT22;10909;53.590;10.054;2022-11-11T20:13:34;14.80;72.30
21495;DHT22;10909;53.590;10.054;2022-11-11T20:16:01;14.80;72.50
21495;DHT22;10909;53.590;10.054;2022-11-11T20:18:28;14.80;72.60